Weather observations for the past three days for
Perry Stokes Airport
| Date | Time (mdt) | Wind (kph) | Vis. (km) | Weather | Sky Cond. | Temperature (ºC) | Relative Humidity | Wind Chill (°C) | Heat Index (°C) | Pressure | Precipitation (cm) | ||||||
|---|---|---|---|---|---|---|---|---|---|---|---|---|---|---|---|---|---|
| Air | Dwpt | 6 hour | altimeter (cm) | sea level (mb) | 1 hr | 3 hr | 6 hr | ||||||||||
| Max. | Min. | ||||||||||||||||
| 04 | 19:54 | W 26 G 44 | 16.09 | Fair | CLR | 20 | -9.4 | 13% | 75.54 | 999.9 | |||||||
| 04 | 18:54 | W 26 G 46 | 16.09 | Fair | CLR | 21.7 | -7.8 | 13% | 75.51 | 999.5 | |||||||
| 04 | 17:54 | W 31 G 48 | 16.09 | Fair | CLR | 23.3 | -6.1 | 23.9 | 21.1 | 14% | 75.46 | 998.7 | |||||
| 04 | 16:54 | W 24 G 37 | 16.09 | Partly Cloudy | SCT120 | 23.3 | -5.6 | 14% | 75.49 | 999.4 | |||||||
| 04 | 15:54 | Calm | 16.09 | Mostly Cloudy | BKN120 | 23.3 | -5.6 | 14% | 75.57 | 1000.2 | |||||||
| 04 | 14:54 | NW 9 G 31 | 16.09 | Fair | CLR | 23.3 | -5 | 15% | 75.64 | 1001.5 | |||||||
| 04 | 13:54 | W 26 G 37 | 16.09 | Fair | CLR | 22.8 | -3.9 | 17% | 75.69 | 1002.3 | |||||||
| 04 | 12:54 | NW 31 G 48 | 16.09 | A Few Clouds | FEW100 | 21.7 | -2.8 | 19% | 75.77 | 1003.4 | |||||||
| 04 | 11:54 | NW 28 G 50 | 16.09 | Fair | CLR | 21.1 | -0.6 | 21.1 | 12.8 | 23% | 75.82 | 1003.4 | |||||
| 04 | 10:54 | Calm | 16.09 | Fair | CLR | 20 | -0.6 | 25% | 75.9 | 1004.4 | |||||||
| 04 | 09:54 | NW 9 | 16.09 | Fair | CLR | 18.9 | 0 | 28% | 75.92 | 1005.0 | |||||||
| 04 | 08:54 | NW 15 | 16.09 | Fair | CLR | 16.7 | 1.1 | 35% | 75.95 | 1005.6 | |||||||
| 04 | 07:54 | NW 13 | 16.09 | Fair | CLR | 15 | 0 | 36% | 75.95 | 1006.2 | |||||||
| 04 | 06:54 | W 17 | 16.09 | Fair | CLR | 13.3 | 0.6 | 42% | 75.92 | 1005.1 | |||||||
| 04 | 05:54 | W 31 G 46 | 16.09 | Fair | CLR | 12.8 | -0.6 | 16.1 | 8.9 | 40% | 75.92 | 1005.1 | |||||
| 04 | 04:54 | W 19 | 16.09 | Fair | CLR | 10.6 | -2.2 | 41% | 75.92 | 1005.2 | |||||||
| 04 | 03:54 | W 24 | 16.09 | Fair | CLR | 10.6 | -2.2 | 41% | 75.92 | 1005.1 | |||||||
| 04 | 02:54 | W 22 | 16.09 | Fair | CLR | 10 | -1.7 | 44% | 7 | 75.92 | 1005.6 | ||||||
| 04 | 01:54 | W 20 | 16.09 | Fair | CLR | 11.1 | -1.7 | 41% | 75.92 | 1005.2 | |||||||
| 04 | 00:54 | SW 19 | 16.09 | Fair | CLR | 11.7 | -1.7 | 40% | 75.95 | 1005.7 | |||||||
| 03 | 23:54 | NW 13 | 16.09 | Mostly Cloudy | BKN110 | 16.1 | -2.8 | 23.3 | 16.1 | 27% | 75.97 | 1005.1 | |||||
| 03 | 22:54 | NW 11 | 16.09 | Overcast | OVC110 | 16.7 | -2.8 | 26% | 75.97 | 1005.3 | |||||||
| 03 | 21:54 | W 9 | 16.09 | Mostly Cloudy | BKN110 | 16.7 | -2.8 | 26% | 75.95 | 1005.3 | |||||||
| 03 | 20:54 | W 17 G 26 | 16.09 | A Few Clouds | FEW120 | 18.9 | -5 | 19% | 75.92 | 1005.0 | |||||||
| 03 | 19:54 | S 7 | 16.09 | A Few Clouds | FEW120 | 17.2 | -3.3 | 25% | 75.9 | 1005.9 | |||||||
| 03 | 18:54 | SE 13 | 16.09 | Fair | CLR | 21.7 | -6.7 | 14% | 75.84 | 1005.2 | |||||||
| 03 | 17:54 | Calm | 16.09 | Fair | CLR | 22.8 | -7.2 | 24.4 | 21.7 | 13% | 75.9 | 1005.8 | |||||
| 03 | 16:54 | E 11 | 16.09 | Fair | CLR | 24.4 | -6.7 | 12% | 24 | 75.9 | 1005.7 | ||||||
| 03 | 15:54 | SE 9 | 16.09 | Fair | CLR | 24.4 | -6.1 | 13% | 24 | 75.97 | 1006.5 | ||||||
| 03 | 14:54 | SE 13 | 16.09 | Fair | CLR | 22.2 | -7.8 | 13% | 76.05 | 1007.8 | |||||||
| 03 | 13:54 | SE 15 | 16.09 | A Few Clouds | FEW120 | 24.4 | -6.7 | 12% | 24 | 76.12 | 1008.2 | ||||||
| 03 | 12:54 | Calm | 16.09 | Fair | CLR | 22.8 | -7.8 | 12% | 76.25 | 1010.3 | |||||||
| 03 | 11:54 | Calm | 16.09 | Fair | CLR | 22.8 | -6.7 | 22.8 | 6.7 | 13% | 76.33 | 1011.3 | |||||
| 03 | 10:54 | Vrbl 7 | 16.09 | Fair | CLR | 21.7 | -6.7 | 14% | 76.38 | 1012.1 | |||||||
| 03 | 09:54 | Vrbl 6 | 16.09 | Fair | CLR | 20 | -3.9 | 20% | 76.43 | 1013.1 | |||||||
| 03 | 08:54 | W 15 | 16.09 | Fair | CLR | 17.2 | -3.3 | 25% | 76.45 | 1014.1 | |||||||
| 03 | 07:54 | W 30 | 16.09 | Fair | CLR | 11.1 | -2.2 | 40% | 76.45 | 1014.4 | |||||||
| 03 | 06:54 | W 31 | 16.09 | Fair | CLR | 7.8 | -2.8 | 47% | 4 | 76.43 | 1014.1 | ||||||
| 03 | 05:54 | W 26 | 16.09 | Fair | CLR | 6.1 | -2.2 | 10 | 6.1 | 56% | 2 | 76.4 | 1013.7 | ||||
| 03 | 04:54 | W 28 | 16.09 | Fair | CLR | 6.7 | -2.2 | 53% | 3 | 76.4 | 1013.5 | ||||||
| 03 | 03:54 | W 30 G 44 | 16.09 | Fair | CLR | 7.8 | -1.7 | 51% | 4 | 76.43 | 1013.7 | ||||||
| 03 | 02:54 | W 31 G 41 | 16.09 | Fair | CLR | 8.9 | -1.7 | 48% | 5 | 76.43 | 1013.6 | ||||||
| 03 | 01:54 | SW 22 | 16.09 | Fair | CLR | 9.4 | -1.7 | 46% | 7 | 76.48 | 1014.2 | ||||||
| 03 | 00:54 | W 17 | 16.09 | Fair | CLR | 8.3 | -1.7 | 50% | 6 | 76.5 | 1015.2 | ||||||
| 02 | 23:54 | W 13 | 16.09 | Fair | CLR | 8.9 | -2.8 | 18.9 | 8.3 | 44% | 7 | 76.53 | 1015.7 | ||||
| 02 | 22:54 | W 17 | 16.09 | Fair | CLR | 9.4 | -2.2 | 44% | 7 | 76.56 | 1015.9 | ||||||
| 02 | 21:54 | W 15 | 16.09 | Fair | CLR | 10 | -2.2 | 43% | 8 | 76.56 | 1016.4 | ||||||
| 02 | 20:54 | S 13 | 16.09 | Fair | CLR | 10.6 | -2.2 | 41% | 76.53 | 1016.2 | |||||||
| 02 | 19:54 | S 17 | 16.09 | Fair | CLR | 14.4 | -3.3 | 29% | 76.48 | 1015.6 | |||||||
| 02 | 18:54 | SE 11 | 16.09 | Fair | CLR | 17.8 | -4.4 | 22% | 76.45 | 1015.4 | |||||||
| 02 | 17:54 | S 15 | 16.09 | Fair | CLR | 18.9 | -4.4 | 19.4 | 15 | 20% | 76.48 | 1015.5 | |||||
| 02 | 16:54 | SE 17 G 33 | 16.09 | Fair | CLR | 19.4 | -4.4 | 20% | 76.48 | 1015.4 | |||||||
| 02 | 15:54 | SE 17 G 26 | 16.09 | Fair | CLR | 18.9 | -4.4 | 20% | 76.56 | 1016.3 | |||||||
| 02 | 14:54 | E 9 | 16.09 | Fair | CLR | 18.3 | -5 | 20% | 76.61 | 1017.5 | |||||||
| 02 | 13:54 | Vrbl 11 | 16.09 | Fair | CLR | 17.8 | -5 | 21% | 76.68 | 1018.4 | |||||||
| 02 | 12:54 | S 13 | 16.09 | Fair | CLR | 16.7 | -6.7 | 20% | 76.73 | 1019.3 | |||||||
| 02 | 11:54 | Vrbl 7 | 16.09 | Fair | CLR | 15 | -6.7 | 15.6 | 1.7 | 22% | 76.81 | 1020.5 | |||||
| 02 | 10:54 | SW 13 | 16.09 | Fair | CLR | 15 | -5.6 | 24% | 76.84 | 1020.8 | |||||||
| 02 | 09:54 | W 9 | 16.09 | Fair | CLR | 13.3 | -3.9 | 30% | 76.84 | 1020.9 | |||||||
| 02 | 08:54 | SW 22 | 16.09 | Fair | CLR | 10 | -0.6 | 48% | 7 | 76.84 | 1021.7 | ||||||
| 02 | 07:54 | W 24 | 16.09 | Fair | CLR | 6.1 | 0 | 65% | 2 | 76.81 | 1021.8 | ||||||
| 02 | 06:54 | W 30 | 16.09 | Fair | CLR | 3.3 | -1.1 | 73% | -2 | 76.78 | 1021.4 | ||||||
| 02 | 05:54 | W 26 | 16.09 | Fair | CLR | 1.7 | -1.1 | 3.9 | 1.7 | 82% | -3 | 76.76 | 1020.9 | ||||
| 02 | 04:54 | W 26 | 16.09 | Fair | CLR | 2.2 | -1.1 | 79% | -3 | 76.73 | 1021.1 | ||||||
| 02 | 03:54 | W 28 | 16.09 | Fair | CLR | 2.8 | 0 | 82% | -2 | 76.71 | 1020.5 | ||||||
| 02 | 02:54 | W 31 | 16.09 | Fair | CLR | 2.8 | 0 | 82% | -3 | 76.71 | 1020.5 | ||||||
| 02 | 01:54 | W 30 | 16.09 | Fair | CLR | 3.3 | 0.6 | 83% | -2 | 76.71 | 1020.5 | ||||||
| 02 | 00:54 | W 28 | 16.09 | Fair | CLR | 3.9 | 1.1 | 82% | -1 | 76.71 | 1020.9 | ||||||
| 01 | 23:54 | W 22 | 16.09 | Fair | CLR | 3.9 | 1.7 | 12.2 | 3.9 | 86% | -0 | 76.71 | 1021.1 | 0.05 | |||
| 01 | 22:54 | W 24 | 16.09 | Fair | CLR | 4.4 | 2.2 | 86% | 0 | 76.71 | 1021.4 | ||||||
| 01 | 21:54 | W 24 G 37 | 16.09 | Fair | CLR | 5.6 | 2.2 | 79% | 2 | 76.71 | 1021.3 | ||||||
| 01 | 20:54 | W 22 | 16.09 | Fair | CLR | 5.6 | 3.3 | 85% | 2 | 76.68 | 1021.0 | 0.05 | |||||
| Date | Time (mdt) | Wind (kph) | Vis. (km) | Weather | Sky Cond. | Air | Dwpt | Max. | Min. | Relative Humidity | Wind Chill (°C) | Heat Index (°C) | altimeter (cm) | sea level (mb) | 1 hr | 3 hr | 6 hr |
| 6 hour | |||||||||||||||||
| Temperature (ºC) | Pressure | Precipitation (cm) | |||||||||||||||